Time;durP1;ratioP1;P1;durP2;ratioP2;P2;SDS_P1;SDS_P2;PMS_P1;PMS_P2;Temp;Humidity;BMP_temperature;BMP_pressure;BME280_temperature;BME280_humidity;BME280_pressure;Samples;Min_cycle;Max_cycle;Signal;HPM_P1;HPM_P2
2022/05/14 00:00:19;;;;;;;10.33;4.20;;;;;;;;;;5030080;28;20084;-59
2022/05/14 00:02:45;;;;;;;12.47;3.80;;;;;;;;;;5030249;28;20852;-59
2022/05/14 00:05:11;;;;;;;17.73;4.23;;;;;;;;;;5047701;28;20644;-59
2022/05/14 00:07:38;;;;;;;13.77;4.23;;;;;;;;;;5049897;28;20044;-60
2022/05/14 00:10:05;;;;;;;15.03;4.10;;;;;;;;;;5048319;28;20036;-59
2022/05/14 00:15:16;;;;;;;14.37;4.20;;;;;;;;;;5029843;28;20065;-60
2022/05/14 00:17:42;;;;;;;13.23;3.87;;;;;;;;;;5030132;28;20045;-59
2022/05/14 00:20:09;;;;;;;16.73;4.07;;;;;;;;;;5045566;28;20048;-59
2022/05/14 00:22:35;;;;;;;9.97;3.53;;;;;;;;;;5036054;28;20053;-59
2022/05/14 00:25:02;;;;;;;11.67;3.13;;;;;;;;;;5029682;28;20102;-60
2022/05/14 00:27:28;;;;;;;9.17;3.60;;;;;;;;;;5030137;28;20088;-59
2022/05/14 00:29:56;;;;;;;14.90;3.47;;;;;;;;;;5029712;28;20058;-60
2022/05/14 00:32:22;;;;;;;11.77;2.97;;;;;;;;;;5035606;28;20045;-60
2022/05/14 00:34:48;;;;;;;11.10;3.13;;;;;;;;;;5049233;28;20074;-60
2022/05/14 00:37:16;;;;;;;9.67;3.27;;;;;;;;;;5049425;28;20063;-59
2022/05/14 00:39:43;;;;;;;9.03;3.27;;;;;;;;;;5049636;28;20053;-59
2022/05/14 00:42:10;;;;;;;15.57;4.90;;;;;;;;;;5049061;28;20041;-59
2022/05/14 00:44:36;;;;;;;13.30;4.70;;;;;;;;;;5049230;28;20095;-60
2022/05/14 00:47:04;;;;;;;13.97;4.07;;;;;;;;;;5044555;28;20845;-59
2022/05/14 00:49:32;;;;;;;11.50;3.80;;;;;;;;;;5029627;28;20050;-59
2022/05/14 00:51:59;;;;;;;12.60;4.47;;;;;;;;;;5028873;28;20593;-60
2022/05/14 00:54:35;;;;;;;12.70;3.40;;;;;;;;;;5029517;28;20103;-60
2022/05/14 00:57:03;;;;;;;13.10;3.37;;;;;;;;;;5048558;28;20102;-59
2022/05/14 00:59:29;;;;;;;12.20;3.40;;;;;;;;;;5048888;28;20760;-59
2022/05/14 01:01:56;;;;;;;14.33;3.93;;;;;;;;;;5048619;28;20090;-59
2022/05/14 01:04:23;;;;;;;13.20;3.30;;;;;;;;;;5037175;28;20127;-60
2022/05/14 01:06:58;;;;;;;12.40;3.83;;;;;;;;;;5029384;28;20045;-59
2022/05/14 01:09:24;;;;;;;13.87;3.73;;;;;;;;;;5031263;28;20088;-59
2022/05/14 01:11:51;;;;;;;11.37;3.83;;;;;;;;;;5027940;28;20050;-60
2022/05/14 01:14:18;;;;;;;13.50;4.30;;;;;;;;;;5040266;28;20049;-59
2022/05/14 01:16:45;;;;;;;11.63;3.87;;;;;;;;;;5044085;28;20076;-60
2022/05/14 01:19:11;;;;;;;16.63;4.53;;;;;;;;;;5028832;28;20056;-59
2022/05/14 01:22:00;;;;;;;10.63;4.27;;;;;;;;;;5028925;28;20041;-62
2022/05/14 01:27:23;;;;;;;13.40;3.87;;;;;;;;;;5048514;28;20049;-65
2022/05/14 01:29:49;;;;;;;18.23;5.00;;;;;;;;;;5032572;28;20064;-59
2022/05/14 01:32:16;;;;;;;15.07;5.33;;;;;;;;;;5041385;28;20049;-59
2022/05/14 01:34:43;;;;;;;12.80;4.03;;;;;;;;;;5048383;28;20056;-60
2022/05/14 01:37:10;;;;;;;18.10;4.53;;;;;;;;;;5048503;28;20396;-60
2022/05/14 01:39:36;;;;;;;11.00;3.90;;;;;;;;;;5030035;28;20094;-59
2022/05/14 01:42:03;;;;;;;15.83;4.53;;;;;;;;;;5028560;28;20045;-60
2022/05/14 01:44:29;;;;;;;14.97;4.37;;;;;;;;;;5034723;28;20461;-59
2022/05/14 01:46:55;;;;;;;19.17;4.50;;;;;;;;;;5048191;28;20075;-59
2022/05/14 01:49:21;;;;;;;12.97;4.70;;;;;;;;;;5048198;28;20099;-60
2022/05/14 01:51:48;;;;;;;16.63;5.07;;;;;;;;;;5042763;28;20049;-60
2022/05/14 01:54:14;;;;;;;19.70;4.87;;;;;;;;;;5028286;28;20052;-60
2022/05/14 01:56:40;;;;;;;13.37;4.97;;;;;;;;;;5028378;28;20103;-59
2022/05/14 01:59:07;;;;;;;15.20;5.50;;;;;;;;;;5033642;28;20877;-59
2022/05/14 02:01:34;;;;;;;12.97;5.10;;;;;;;;;;5048143;28;20055;-60
2022/05/14 02:04:05;;;;;;;14.17;4.43;;;;;;;;;;5047197;28;20059;-60
2022/05/14 02:06:31;;;;;;;22.30;6.97;;;;;;;;;;5047848;28;20048;-60
2022/05/14 02:08:58;;;;;;;16.43;5.83;;;;;;;;;;5045976;28;20072;-60
2022/05/14 02:11:24;;;;;;;16.50;5.30;;;;;;;;;;5048356;28;20045;-59
2022/05/14 02:13:51;;;;;;;16.10;5.37;;;;;;;;;;5041773;28;20133;-59
2022/05/14 02:16:17;;;;;;;19.60;5.80;;;;;;;;;;5028245;28;20188;-60
2022/05/14 02:18:43;;;;;;;22.03;5.87;;;;;;;;;;5028440;28;20072;-60
2022/05/14 02:21:10;;;;;;;15.83;5.10;;;;;;;;;;5028086;28;20046;-60
2022/05/14 02:23:38;;;;;;;16.20;6.00;;;;;;;;;;5035228;28;20055;-59
2022/05/14 02:26:08;;;;;;;17.60;5.30;;;;;;;;;;5047551;28;20124;-59
2022/05/14 02:28:34;;;;;;;17.13;5.67;;;;;;;;;;5041453;28;20075;-60
2022/05/14 02:31:01;;;;;;;18.77;7.13;;;;;;;;;;5047545;28;20053;-59
2022/05/14 02:33:27;;;;;;;21.20;6.50;;;;;;;;;;5047961;28;20469;-60
2022/05/14 02:35:53;;;;;;;19.57;7.13;;;;;;;;;;5047576;28;20619;-59
2022/05/14 02:38:19;;;;;;;20.40;6.33;;;;;;;;;;5047287;28;20057;-59
2022/05/14 02:40:46;;;;;;;19.50;6.73;;;;;;;;;;5047687;28;20060;-60
2022/05/14 02:43:12;;;;;;;17.67;6.93;;;;;;;;;;5046572;28;20044;-60
2022/05/14 02:45:38;;;;;;;23.37;7.67;;;;;;;;;;5047969;28;20072;-60
2022/05/14 02:48:04;;;;;;;26.30;7.70;;;;;;;;;;5047502;28;20091;-59
2022/05/14 02:50:31;;;;;;;16.77;6.47;;;;;;;;;;5045964;28;20526;-59
2022/05/14 02:52:57;;;;;;;22.73;6.83;;;;;;;;;;5046784;28;20764;-60
2022/05/14 02:55:23;;;;;;;18.33;7.03;;;;;;;;;;5047716;28;20075;-60
2022/05/14 02:57:50;;;;;;;20.83;6.80;;;;;;;;;;5029387;28;20492;-59
2022/05/14 03:00:17;;;;;;;18.13;6.63;;;;;;;;;;5027532;28;20037;-60
2022/05/14 03:02:44;;;;;;;20.10;7.10;;;;;;;;;;5027848;28;20049;-60
2022/05/14 03:05:12;;;;;;;22.97;7.97;;;;;;;;;;5027259;28;20049;-60
2022/05/14 03:07:38;;;;;;;24.27;7.17;;;;;;;;;;5027720;28;20052;-60
2022/05/14 03:10:04;;;;;;;23.80;9.23;;;;;;;;;;5027581;28;20045;-59
2022/05/14 03:12:30;;;;;;;22.77;7.33;;;;;;;;;;5027288;28;20515;-60
2022/05/14 03:14:56;;;;;;;21.37;7.53;;;;;;;;;;5044139;28;20045;-60
2022/05/14 03:17:22;;;;;;;18.87;7.63;;;;;;;;;;5050934;28;20522;-59
2022/05/14 03:19:49;;;;;;;26.97;7.87;;;;;;;;;;5051031;28;20053;-59
2022/05/14 03:22:16;;;;;;;20.17;7.70;;;;;;;;;;5038719;28;20045;-60
2022/05/14 03:24:42;;;;;;;31.20;8.83;;;;;;;;;;5045655;28;20045;-60
2022/05/14 03:27:10;;;;;;;22.53;8.47;;;;;;;;;;5034947;28;20188;-60
2022/05/14 03:29:36;;;;;;;20.93;9.30;;;;;;;;;;5029052;28;20131;-59
2022/05/14 03:32:02;;;;;;;25.20;10.53;;;;;;;;;;5030966;28;20452;-60
2022/05/14 03:34:29;;;;;;;27.83;9.37;;;;;;;;;;5030585;28;20049;-60
2022/05/14 03:36:54;;;;;;;21.90;9.33;;;;;;;;;;5031622;28;20172;-60
2022/05/14 03:39:20;;;;;;;21.57;10.00;;;;;;;;;;5030559;28;20136;-60
2022/05/14 03:41:47;;;;;;;24.17;9.80;;;;;;;;;;5030548;28;20048;-60
2022/05/14 03:44:13;;;;;;;19.07;9.87;;;;;;;;;;5046151;28;20048;-60
2022/05/14 03:46:39;;;;;;;27.80;10.50;;;;;;;;;;5050016;28;20045;-59
2022/05/14 03:49:05;;;;;;;26.33;10.30;;;;;;;;;;5049527;28;20049;-60
2022/05/14 03:51:31;;;;;;;28.87;10.43;;;;;;;;;;5037159;28;20820;-60
2022/05/14 03:53:57;;;;;;;28.70;10.93;;;;;;;;;;5050112;28;20053;-60
2022/05/14 03:56:23;;;;;;;30.60;10.83;;;;;;;;;;5049631;28;20048;-59
2022/05/14 03:58:49;;;;;;;29.00;9.90;;;;;;;;;;5049806;28;20037;-59
2022/05/14 04:01:16;;;;;;;29.97;10.37;;;;;;;;;;5041313;28;20045;-60
2022/05/14 04:03:42;;;;;;;25.70;10.80;;;;;;;;;;5040272;28;20051;-60
2022/05/14 04:06:08;;;;;;;33.13;11.13;;;;;;;;;;5038484;28;20038;-59
2022/05/14 04:08:35;;;;;;;36.67;11.70;;;;;;;;;;5041104;28;20045;-60
2022/05/14 04:11:01;;;;;;;29.37;11.97;;;;;;;;;;5037045;28;20513;-59
2022/05/14 04:13:27;;;;;;;41.10;13.20;;;;;;;;;;5034638;28;20044;-60
2022/05/14 04:15:53;;;;;;;37.63;13.80;;;;;;;;;;5043316;28;20122;-60
2022/05/14 04:18:24;;;;;;;33.27;12.60;;;;;;;;;;5041462;28;20538;-60
2022/05/14 04:20:52;;;;;;;25.97;12.77;;;;;;;;;;5039256;28;20074;-60
2022/05/14 04:23:18;;;;;;;28.73;12.77;;;;;;;;;;5039038;28;20056;-59
2022/05/14 04:25:44;;;;;;;26.53;11.53;;;;;;;;;;5037875;28;20041;-60
2022/05/14 04:28:10;;;;;;;27.57;11.53;;;;;;;;;;5036322;28;20067;-60
2022/05/14 04:30:36;;;;;;;29.03;11.30;;;;;;;;;;5049840;28;20051;-60
2022/05/14 04:33:02;;;;;;;33.17;13.00;;;;;;;;;;5049501;28;20044;-60
2022/05/14 04:35:28;;;;;;;29.83;12.13;;;;;;;;;;5047718;28;20056;-59
2022/05/14 04:37:54;;;;;;;35.47;13.03;;;;;;;;;;5050129;28;20044;-60
2022/05/14 04:40:20;;;;;;;28.13;12.27;;;;;;;;;;5044822;28;20048;-59
2022/05/14 04:42:46;;;;;;;30.10;12.77;;;;;;;;;;5029546;28;20041;-59
2022/05/14 04:45:13;;;;;;;32.70;12.27;;;;;;;;;;5034368;28;20492;-60
2022/05/14 04:47:40;;;;;;;36.20;14.07;;;;;;;;;;5048240;28;20048;-60
2022/05/14 04:50:06;;;;;;;29.53;11.90;;;;;;;;;;5040410;28;20057;-60
2022/05/14 04:52:32;;;;;;;32.97;12.57;;;;;;;;;;5029421;28;20069;-60
2022/05/14 04:54:58;;;;;;;37.23;13.40;;;;;;;;;;5030973;28;20092;-60
2022/05/14 04:57:24;;;;;;;34.17;13.20;;;;;;;;;;5049397;28;20124;-60
2022/05/14 04:59:50;;;;;;;40.30;13.30;;;;;;;;;;5063507;28;20131;-59
2022/05/14 05:05:01;;;;;;;24.33;12.30;;;;;;;;;;5048628;28;20570;-60
2022/05/14 05:07:27;;;;;;;27.13;13.83;;;;;;;;;;5048880;28;20080;-60
2022/05/14 05:09:53;;;;;;;32.03;13.10;;;;;;;;;;5048213;28;20084;-60
2022/05/14 05:12:20;;;;;;;31.07;13.23;;;;;;;;;;5068356;28;20060;-60
2022/05/14 05:14:46;;;;;;;32.07;13.30;;;;;;;;;;5067894;28;20051;-60
2022/05/14 05:17:12;;;;;;;45.53;14.00;;;;;;;;;;5040753;28;20104;-60
2022/05/14 05:19:38;;;;;;;35.17;14.40;;;;;;;;;;5039627;28;20041;-60
2022/05/14 05:22:04;;;;;;;36.37;13.87;;;;;;;;;;5035280;28;20048;-60
2022/05/14 05:24:30;;;;;;;36.13;14.10;;;;;;;;;;5034118;28;20120;-60
2022/05/14 05:26:56;;;;;;;33.93;14.33;;;;;;;;;;5035115;28;20128;-60
2022/05/14 05:29:22;;;;;;;30.03;12.87;;;;;;;;;;5034582;28;20056;-60
2022/05/14 05:31:48;;;;;;;28.47;12.13;;;;;;;;;;5036594;28;20672;-60
2022/05/14 05:34:14;;;;;;;32.63;13.23;;;;;;;;;;5033880;28;20041;-60
2022/05/14 05:36:40;;;;;;;32.83;12.50;;;;;;;;;;5038185;28;20037;-60
2022/05/14 05:39:06;;;;;;;30.70;12.13;;;;;;;;;;5038172;28;20041;-60
2022/05/14 05:41:32;;;;;;;27.57;11.40;;;;;;;;;;5040633;28;20056;-60
2022/05/14 05:43:58;;;;;;;30.03;12.33;;;;;;;;;;5048644;28;20049;-60
2022/05/14 05:46:24;;;;;;;37.83;14.00;;;;;;;;;;5048718;28;20056;-60
2022/05/14 05:48:51;;;;;;;28.47;10.43;;;;;;;;;;5044941;28;20056;-60
2022/05/14 05:51:17;;;;;;;37.07;12.23;;;;;;;;;;5046895;28;20055;-60
2022/05/14 05:56:46;;;;;;;32.80;11.87;;;;;;;;;;5046168;28;20040;-61
2022/05/14 05:59:12;;;;;;;33.77;11.33;;;;;;;;;;5030383;28;20045;-61
2022/05/14 06:01:38;;;;;;;26.33;11.30;;;;;;;;;;5047652;28;20048;-60
2022/05/14 06:04:05;;;;;;;25.60;10.87;;;;;;;;;;5061889;28;20102;-61
2022/05/14 06:06:31;;;;;;;32.50;12.10;;;;;;;;;;5046047;28;20059;-60
2022/05/14 06:08:58;;;;;;;30.83;11.83;;;;;;;;;;5051088;28;20119;-60
2022/05/14 06:11:25;;;;;;;29.40;10.83;;;;;;;;;;5068476;28;20103;-60
2022/05/14 06:13:51;;;;;;;30.37;11.40;;;;;;;;;;5061510;28;20049;-61
2022/05/14 06:16:17;;;;;;;28.43;11.67;;;;;;;;;;5058328;28;20071;-61
2022/05/14 06:18:43;;;;;;;24.37;10.43;;;;;;;;;;5056260;28;20494;-61
2022/05/14 06:21:10;;;;;;;30.40;11.57;;;;;;;;;;5038843;28;20044;-61
2022/05/14 06:23:36;;;;;;;31.37;12.57;;;;;;;;;;5040788;28;20094;-61
2022/05/14 06:26:02;;;;;;;26.50;11.47;;;;;;;;;;5056305;28;20037;-61
2022/05/14 06:28:28;;;;;;;29.77;11.80;;;;;;;;;;5034979;28;20110;-61
2022/05/14 06:30:55;;;;;;;23.77;11.43;;;;;;;;;;5038375;28;20064;-61
2022/05/14 06:33:21;;;;;;;32.77;11.67;;;;;;;;;;5046205;28;20037;-62
2022/05/14 06:35:47;;;;;;;24.73;10.97;;;;;;;;;;5038949;28;20110;-61
2022/05/14 06:38:14;;;;;;;33.10;11.60;;;;;;;;;;5034708;28;20132;-63
2022/05/14 06:40:40;;;;;;;30.70;11.67;;;;;;;;;;5032745;28;20124;-61
2022/05/14 06:43:06;;;;;;;31.83;11.23;;;;;;;;;;5037220;28;20107;-62
2022/05/14 06:45:32;;;;;;;25.97;11.77;;;;;;;;;;5027338;28;20045;-61
2022/05/14 06:47:59;;;;;;;24.77;12.73;;;;;;;;;;5046176;28;20048;-62
2022/05/14 06:50:25;;;;;;;29.53;13.40;;;;;;;;;;5046968;28;20547;-62
2022/05/14 06:52:53;;;;;;;31.53;11.43;;;;;;;;;;5050571;28;20080;-61
2022/05/14 06:55:21;;;;;;;31.90;11.40;;;;;;;;;;5044294;28;20088;-61
2022/05/14 06:57:48;;;;;;;31.83;12.27;;;;;;;;;;5045753;28;20151;-61
2022/05/14 07:00:14;;;;;;;26.93;11.83;;;;;;;;;;5050171;28;20139;-61
2022/05/14 07:02:41;;;;;;;28.97;12.17;;;;;;;;;;5051436;28;20454;-61
2022/05/14 07:07:52;;;;;;;35.30;13.07;;;;;;;;;;5051519;28;20052;-61
2022/05/14 07:10:18;;;;;;;35.23;11.57;;;;;;;;;;5050872;28;20122;-61
2022/05/14 07:12:44;;;;;;;37.50;11.17;;;;;;;;;;5051370;28;20048;-62
2022/05/14 07:15:12;;;;;;;34.53;9.37;;;;;;;;;;5051101;28;20049;-62
2022/05/14 07:17:38;;;;;;;23.67;9.00;;;;;;;;;;5051595;28;20404;-62
2022/05/14 07:20:04;;;;;;;34.47;9.57;;;;;;;;;;5047834;28;20041;-62
2022/05/14 07:22:30;;;;;;;28.90;9.87;;;;;;;;;;5031513;28;20449;-61
2022/05/14 07:24:57;;;;;;;32.07;9.97;;;;;;;;;;5031580;28;20057;-61
2022/05/14 07:27:23;;;;;;;23.73;8.57;;;;;;;;;;5030983;28;20407;-61
2022/05/14 07:29:49;;;;;;;27.60;7.67;;;;;;;;;;5030229;28;20057;-61
2022/05/14 07:32:16;;;;;;;31.43;7.27;;;;;;;;;;5031006;28;20089;-61
2022/05/14 07:34:43;;;;;;;31.07;7.80;;;;;;;;;;5033261;28;20045;-61
2022/05/14 07:37:19;;;;;;;27.17;6.97;;;;;;;;;;5050766;28;20040;-61
2022/05/14 07:39:48;;;;;;;30.60;7.93;;;;;;;;;;5049612;28;20091;-61
2022/05/14 07:42:18;;;;;;;22.63;7.60;;;;;;;;;;5050290;28;20443;-61
2022/05/14 07:44:46;;;;;;;27.57;7.10;;;;;;;;;;5050995;28;20991;-61
2022/05/14 07:47:13;;;;;;;21.10;5.77;;;;;;;;;;5051023;28;20455;-61
2022/05/14 07:49:40;;;;;;;31.30;7.10;;;;;;;;;;5050258;28;20049;-61
2022/05/14 07:52:07;;;;;;;21.77;8.07;;;;;;;;;;5050386;28;20087;-61
2022/05/14 07:54:33;;;;;;;19.87;6.90;;;;;;;;;;5043308;28;20053;-61
2022/05/14 07:57:00;;;;;;;21.10;5.53;;;;;;;;;;5030857;28;20052;-61
2022/05/14 07:59:27;;;;;;;20.00;5.37;;;;;;;;;;5030958;28;20049;-61
2022/05/14 08:01:53;;;;;;;21.57;5.43;;;;;;;;;;5034854;28;20048;-61
2022/05/14 08:04:19;;;;;;;20.87;7.30;;;;;;;;;;5050569;28;20379;-61
2022/05/14 08:06:45;;;;;;;21.67;6.80;;;;;;;;;;5049914;28;20045;-60
2022/05/14 08:09:11;;;;;;;25.03;7.10;;;;;;;;;;5032593;28;20042;-61
2022/05/14 08:11:38;;;;;;;23.77;6.23;;;;;;;;;;5030938;28;20045;-61
2022/05/14 08:14:04;;;;;;;19.70;6.03;;;;;;;;;;5030498;28;20046;-61
2022/05/14 08:16:31;;;;;;;22.40;6.57;;;;;;;;;;5030268;28;20073;-61
2022/05/14 08:18:57;;;;;;;21.93;6.87;;;;;;;;;;5030268;28;20060;-61
2022/05/14 08:26:53;;;;;;;24.17;6.30;;;;;;;;;;5030162;28;20551;-61
2022/05/14 08:29:20;;;;;;;26.57;6.43;;;;;;;;;;5029511;28;20132;-61
2022/05/14 08:31:46;;;;;;;30.17;6.33;;;;;;;;;;5028596;28;20053;-61
2022/05/14 08:34:12;;;;;;;23.33;5.70;;;;;;;;;;5029904;28;20053;-61
2022/05/14 08:36:38;;;;;;;22.57;6.53;;;;;;;;;;5030251;28;20103;-61
2022/05/14 08:39:04;;;;;;;18.17;5.47;;;;;;;;;;5029447;28;20611;-61
2022/05/14 08:41:32;;;;;;;16.87;5.23;;;;;;;;;;5029866;28;20037;-61
2022/05/14 08:44:00;;;;;;;19.37;5.33;;;;;;;;;;5029768;28;20055;-61
2022/05/14 08:46:27;;;;;;;15.23;5.33;;;;;;;;;;5029835;28;20129;-61
2022/05/14 08:48:57;;;;;;;17.40;5.10;;;;;;;;;;5029719;28;20042;-61
2022/05/14 08:51:25;;;;;;;23.93;5.67;;;;;;;;;;5029320;28;20041;-61
2022/05/14 08:53:51;;;;;;;22.53;5.53;;;;;;;;;;5029309;28;20094;-61
2022/05/14 08:56:20;;;;;;;18.00;6.20;;;;;;;;;;5029525;28;20046;-61
2022/05/14 08:59:02;;;;;;;20.93;4.93;;;;;;;;;;5029673;28;20122;-61
2022/05/14 09:01:29;;;;;;;17.97;4.70;;;;;;;;;;5029748;28;20049;-61
2022/05/14 09:03:55;;;;;;;18.90;5.00;;;;;;;;;;5029568;28;20563;-61
2022/05/14 09:06:21;;;;;;;19.67;5.53;;;;;;;;;;5036134;28;20483;-61
2022/05/14 09:08:48;;;;;;;22.27;6.20;;;;;;;;;;5049299;28;20044;-61
2022/05/14 09:11:20;;;;;;;18.30;5.53;;;;;;;;;;5049427;28;20053;-61
2022/05/14 09:13:48;;;;;;;22.30;5.60;;;;;;;;;;5049198;28;20045;-61
2022/05/14 09:16:23;;;;;;;17.77;4.17;;;;;;;;;;5048387;28;20673;-61
2022/05/14 09:18:50;;;;;;;23.73;6.23;;;;;;;;;;5046247;28;20651;-61
2022/05/14 09:21:19;;;;;;;20.03;5.33;;;;;;;;;;5047978;28;20070;-61
2022/05/14 09:23:49;;;;;;;17.90;5.10;;;;;;;;;;5047720;28;20045;-61
2022/05/14 09:26:22;;;;;;;19.97;4.63;;;;;;;;;;5049002;28;20040;-61
2022/05/14 09:28:53;;;;;;;25.47;6.40;;;;;;;;;;5048955;28;20090;-61
2022/05/14 09:31:32;;;;;;;23.00;4.97;;;;;;;;;;5047817;28;20060;-61
2022/05/14 09:34:03;;;;;;;22.53;6.10;;;;;;;;;;5048601;28;20147;-62
2022/05/14 09:36:30;;;;;;;20.97;5.33;;;;;;;;;;5048985;28;20503;-61
2022/05/14 09:39:07;;;;;;;19.40;5.57;;;;;;;;;;5048818;28;20052;-61
2022/05/14 09:41:41;;;;;;;22.20;5.03;;;;;;;;;;5048238;28;20056;-61
2022/05/14 09:44:08;;;;;;;21.43;6.13;;;;;;;;;;5039863;28;20045;-61
2022/05/14 09:46:34;;;;;;;20.47;5.43;;;;;;;;;;5048611;28;20048;-61
2022/05/14 09:49:04;;;;;;;13.07;5.37;;;;;;;;;;5048296;28;20102;-61
2022/05/14 09:51:35;;;;;;;19.30;4.67;;;;;;;;;;5048545;28;20059;-61
2022/05/14 09:54:18;;;;;;;20.80;5.25;;;;;;;;;;5048325;28;20511;-61
2022/05/14 09:56:50;;;;;;;18.67;5.25;;;;;;;;;;5047021;28;20049;-61
2022/05/14 09:59:16;;;;;;;18.33;4.70;;;;;;;;;;5034903;28;20050;-61
2022/05/14 10:01:46;;;;;;;13.75;4.57;;;;;;;;;;5027868;28;20103;-61
2022/05/14 10:04:18;;;;;;;18.38;5.15;;;;;;;;;;5027271;28;20057;-61
2022/05/14 10:06:56;;;;;;;17.25;4.75;;;;;;;;;;5028521;28;20049;-61
2022/05/14 10:09:40;;;;;;;14.25;4.13;;;;;;;;;;5028536;28;20104;-61
2022/05/14 10:12:20;;;;;;;14.82;4.90;;;;;;;;;;5028511;28;20042;-61
2022/05/14 10:14:53;;;;;;;15.15;5.28;;;;;;;;;;5028227;28;20062;-61
2022/05/14 10:17:39;;;;;;;16.63;5.18;;;;;;;;;;5028470;28;20133;-61
2022/05/14 10:20:19;;;;;;;18.15;5.20;;;;;;;;;;5028456;28;20041;-61
2022/05/14 10:29:00;;;;;;;15.38;5.38;;;;;;;;;;5050926;28;20076;-61
2022/05/14 10:31:27;;;;;;;14.90;4.78;;;;;;;;;;5051957;28;20779;-62
2022/05/14 10:33:56;;;;;;;17.80;5.68;;;;;;;;;;5052169;28;20137;-62
2022/05/14 10:36:25;;;;;;;15.90;4.78;;;;;;;;;;5050924;28;20107;-61
2022/05/14 10:38:56;;;;;;;18.85;5.40;;;;;;;;;;5052009;28;20095;-61
2022/05/14 10:41:45;;;;;;;19.35;5.18;;;;;;;;;;5051608;28;20044;-61
2022/05/14 10:44:13;;;;;;;13.93;4.30;;;;;;;;;;5043373;28;20056;-61
2022/05/14 10:46:41;;;;;;;14.40;4.90;;;;;;;;;;5052135;28;20049;-61
2022/05/14 10:49:15;;;;;;;17.27;4.90;;;;;;;;;;5052085;28;20045;-61
2022/05/14 10:51:52;;;;;;;22.58;5.28;;;;;;;;;;5052123;28;20045;-61
2022/05/14 10:54:20;;;;;;;18.88;4.82;;;;;;;;;;5051731;28;20041;-61
2022/05/14 10:56:59;;;;;;;16.40;5.35;;;;;;;;;;5050477;28;20036;-61
2022/05/14 10:59:33;;;;;;;15.68;4.45;;;;;;;;;;5038449;28;20041;-61
2022/05/14 11:02:20;;;;;;;16.00;4.50;;;;;;;;;;5041622;28;20056;-61
2022/05/14 11:04:48;;;;;;;14.13;4.30;;;;;;;;;;5040884;28;20055;-61
2022/05/14 11:07:29;;;;;;;14.50;4.15;;;;;;;;;;5051883;28;20663;-62
2022/05/14 11:10:06;;;;;;;15.20;4.68;;;;;;;;;;5051668;28;20044;-61
2022/05/14 11:12:33;;;;;;;14.52;4.45;;;;;;;;;;5051402;28;20090;-61
2022/05/14 11:15:00;;;;;;;14.23;5.10;;;;;;;;;;5051227;28;20569;-61
2022/05/14 11:17:30;;;;;;;15.88;4.78;;;;;;;;;;5051511;28;20048;-61
2022/05/14 11:20:05;;;;;;;13.77;4.35;;;;;;;;;;5051305;28;20052;-62
2022/05/14 11:22:33;;;;;;;14.95;4.80;;;;;;;;;;5051518;28;20453;-61
2022/05/14 11:25:28;;;;;;;13.63;4.72;;;;;;;;;;5051198;28;20142;-61
2022/05/14 11:28:13;;;;;;;15.85;5.00;;;;;;;;;;5037857;28;20384;-62
2022/05/14 11:30:53;;;;;;;21.67;5.45;;;;;;;;;;5050889;28;20524;-62
2022/05/14 11:33:22;;;;;;;20.42;6.32;;;;;;;;;;5051250;28;20055;-61
2022/05/14 11:35:49;;;;;;;17.88;5.03;;;;;;;;;;5050052;28;20052;-61
2022/05/14 11:38:24;;;;;;;16.00;4.82;;;;;;;;;;5050634;28;20045;-61
2022/05/14 11:41:10;;;;;;;13.55;4.05;;;;;;;;;;5051101;28;20641;-61
2022/05/14 11:43:36;;;;;;;16.08;5.05;;;;;;;;;;5050124;28;20080;-61
2022/05/14 11:46:21;;;;;;;13.48;4.38;;;;;;;;;;5050963;28;20055;-61
2022/05/14 11:48:47;;;;;;;21.02;5.55;;;;;;;;;;5051051;28;20045;-61
2022/05/14 11:51:25;;;;;;;14.52;4.60;;;;;;;;;;5050230;28;20406;-61
2022/05/14 11:53:55;;;;;;;18.52;5.50;;;;;;;;;;5050752;28;20391;-61
2022/05/14 11:56:30;;;;;;;16.02;4.70;;;;;;;;;;5050537;28;20463;-61
2022/05/14 11:59:05;;;;;;;15.13;4.70;;;;;;;;;;5050289;28;20396;-61
2022/05/14 12:01:33;;;;;;;12.15;4.03;;;;;;;;;;5048693;28;20037;-61
2022/05/14 12:04:01;;;;;;;19.15;4.85;;;;;;;;;;5039021;28;20049;-61
2022/05/14 12:06:33;;;;;;;22.48;5.70;;;;;;;;;;5050812;28;20075;-61
2022/05/14 12:08:59;;;;;;;12.13;3.83;;;;;;;;;;5050529;28;20051;-61
2022/05/14 12:11:28;;;;;;;19.08;5.28;;;;;;;;;;5050434;28;20446;-61
2022/05/14 12:13:57;;;;;;;16.42;4.63;;;;;;;;;;5050473;28;20102;-61
2022/05/14 12:16:30;;;;;;;16.10;4.75;;;;;;;;;;5048613;28;20052;-61
2022/05/14 12:18:56;;;;;;;17.02;4.32;;;;;;;;;;5050587;28;20044;-61
2022/05/14 12:21:23;;;;;;;13.85;4.47;;;;;;;;;;5049935;28;20041;-61
2022/05/14 12:23:49;;;;;;;17.48;4.93;;;;;;;;;;5050145;28;20658;-62
2022/05/14 12:26:21;;;;;;;14.02;4.43;;;;;;;;;;5049964;28;20036;-62
2022/05/14 12:28:48;;;;;;;17.13;5.25;;;;;;;;;;5050450;28;20094;-62
2022/05/14 12:34:03;;;;;;;16.40;4.60;;;;;;;;;;5050484;28;20471;-62
2022/05/14 12:36:34;;;;;;;12.93;4.07;;;;;;;;;;5049780;28;20048;-62
2022/05/14 12:39:03;;;;;;;15.30;4.80;;;;;;;;;;5050037;28;20071;-62
2022/05/14 12:41:31;;;;;;;14.30;4.47;;;;;;;;;;5050097;28;20052;-62
2022/05/14 12:43:58;;;;;;;14.05;5.13;;;;;;;;;;5049429;28;20052;-62
2022/05/14 12:46:24;;;;;;;18.58;5.20;;;;;;;;;;5035864;28;20048;-62
2022/05/14 12:48:52;;;;;;;14.10;4.43;;;;;;;;;;5029395;28;20128;-62
2022/05/14 12:51:22;;;;;;;11.30;4.85;;;;;;;;;;5029961;28;20515;-62
2022/05/14 12:53:49;;;;;;;11.80;4.72;;;;;;;;;;5029647;28;20083;-62
2022/05/14 12:56:16;;;;;;;18.63;4.97;;;;;;;;;;5028437;28;20045;-61
2022/05/14 12:58:43;;;;;;;14.80;4.22;;;;;;;;;;5029244;28;20136;-62
2022/05/14 13:01:09;;;;;;;16.65;4.53;;;;;;;;;;5043112;28;20047;-62
2022/05/14 13:03:39;;;;;;;14.90;4.68;;;;;;;;;;5049469;28;20041;-62
2022/05/14 13:06:10;;;;;;;18.83;5.25;;;;;;;;;;5049658;28;20166;-62
2022/05/14 13:08:41;;;;;;;18.70;5.07;;;;;;;;;;5049441;28;20135;-62
2022/05/14 13:11:11;;;;;;;18.35;4.82;;;;;;;;;;5047295;28;20037;-62
2022/05/14 13:13:41;;;;;;;15.00;4.70;;;;;;;;;;5049390;28;20132;-61
2022/05/14 13:16:15;;;;;;;11.73;4.45;;;;;;;;;;5033877;28;20044;-62
2022/05/14 13:18:44;;;;;;;17.52;4.60;;;;;;;;;;5029320;28;20053;-61
2022/05/14 13:21:16;;;;;;;13.57;4.85;;;;;;;;;;5029185;28;20038;-61
2022/05/14 13:23:51;;;;;;;23.27;5.30;;;;;;;;;;5028809;28;20914;-61
2022/05/14 13:26:25;;;;;;;14.68;5.05;;;;;;;;;;5029322;28;20547;-61
2022/05/14 13:28:51;;;;;;;13.65;4.53;;;;;;;;;;5028973;28;20045;-61
2022/05/14 13:31:22;;;;;;;18.08;4.70;;;;;;;;;;5048066;28;20514;-61
2022/05/14 13:33:58;;;;;;;16.58;4.55;;;;;;;;;;5048913;28;20060;-61
2022/05/14 13:39:15;;;;;;;19.48;5.18;;;;;;;;;;5048774;28;20573;-61
2022/05/14 13:41:44;;;;;;;17.95;4.60;;;;;;;;;;5048939;28;20091;-61
2022/05/14 13:44:17;;;;;;;16.20;5.18;;;;;;;;;;5044742;28;20044;-61
2022/05/14 13:46:53;;;;;;;17.23;5.22;;;;;;;;;;5028523;28;20483;-61
2022/05/14 13:49:20;;;;;;;15.52;5.00;;;;;;;;;;5028553;28;20056;-61
2022/05/14 13:51:51;;;;;;;17.15;4.60;;;;;;;;;;5029337;28;20037;-61
2022/05/14 13:54:28;;;;;;;18.05;4.95;;;;;;;;;;5028832;28;20136;-61
2022/05/14 13:57:02;;;;;;;15.70;4.57;;;;;;;;;;5028453;28;20128;-61
2022/05/14 13:59:33;;;;;;;17.08;5.10;;;;;;;;;;5028034;28;20084;-61
2022/05/14 14:02:18;;;;;;;15.70;5.47;;;;;;;;;;5028304;28;20045;-61
2022/05/14 14:04:44;;;;;;;17.35;4.80;;;;;;;;;;5028596;28;20043;-61
2022/05/14 14:07:11;;;;;;;17.48;5.10;;;;;;;;;;5044116;28;20060;-61
2022/05/14 14:09:38;;;;;;;14.90;4.65;;;;;;;;;;5047315;28;20049;-61
2022/05/14 14:12:04;;;;;;;16.55;5.10;;;;;;;;;;5048358;28;20099;-61
2022/05/14 14:14:31;;;;;;;13.25;5.63;;;;;;;;;;5048374;28;20574;-61
2022/05/14 14:16:57;;;;;;;20.42;5.85;;;;;;;;;;5048551;28;20157;-61
2022/05/14 14:19:24;;;;;;;14.35;4.78;;;;;;;;;;5048576;28;20047;-61
2022/05/14 14:21:51;;;;;;;14.95;4.35;;;;;;;;;;5031883;28;20487;-62
2022/05/14 14:24:19;;;;;;;12.73;4.55;;;;;;;;;;5028627;28;20046;-61
2022/05/14 14:26:46;;;;;;;15.98;4.80;;;;;;;;;;5028749;28;20118;-61
2022/05/14 14:29:13;;;;;;;14.35;4.72;;;;;;;;;;5028495;28;20057;-62
2022/05/14 14:31:39;;;;;;;15.05;4.50;;;;;;;;;;5028420;28;20792;-62
2022/05/14 14:34:05;;;;;;;16.25;4.55;;;;;;;;;;5028668;28;20414;-62
2022/05/14 14:36:31;;;;;;;16.75;4.80;;;;;;;;;;5027950;28;20047;-62
2022/05/14 14:38:57;;;;;;;14.65;4.75;;;;;;;;;;5028135;28;20557;-62
2022/05/14 14:41:23;;;;;;;13.50;5.25;;;;;;;;;;5028164;28;20133;-62
2022/05/14 14:43:50;;;;;;;20.77;5.57;;;;;;;;;;5028214;28;20140;-61
2022/05/14 14:46:16;;;;;;;15.45;5.53;;;;;;;;;;5027934;28;20120;-62
2022/05/14 14:48:44;;;;;;;17.58;5.07;;;;;;;;;;5028073;28;20496;-62
2022/05/14 14:51:11;;;;;;;13.55;4.35;;;;;;;;;;5028349;28;20408;-61
2022/05/14 14:53:38;;;;;;;12.05;5.18;;;;;;;;;;5027771;28;20064;-62
2022/05/14 14:56:05;;;;;;;17.05;5.15;;;;;;;;;;5028223;28;20041;-62
2022/05/14 14:58:31;;;;;;;13.07;4.88;;;;;;;;;;5028322;28;20045;-62
2022/05/14 15:00:57;;;;;;;13.55;4.57;;;;;;;;;;5027836;28;20095;-62
2022/05/14 15:03:29;;;;;;;18.42;5.25;;;;;;;;;;5028071;28;20049;-62